sensor_id;sensor_type;location;lat;lon;timestamp;temperature;humidity
11647;DHT22;5880;52.342;9.662;2023-03-14T00:02:22;14.50;65.20
11647;DHT22;5880;52.342;9.662;2023-03-14T00:04:48;14.60;65.20
11647;DHT22;5880;52.342;9.662;2023-03-14T00:07:14;14.60;65.10
11647;DHT22;5880;52.342;9.662;2023-03-14T00:09:40;14.60;65.10
11647;DHT22;5880;52.342;9.662;2023-03-14T00:12:06;14.60;65.00
11647;DHT22;5880;52.342;9.662;2023-03-14T00:14:32;14.70;65.10
11647;DHT22;5880;52.342;9.662;2023-03-14T00:16:58;14.70;65.10
11647;DHT22;5880;52.342;9.662;2023-03-14T00:19:24;14.70;65.10
11647;DHT22;5880;52.342;9.662;2023-03-14T00:21:49;14.70;65.20
11647;DHT22;5880;52.342;9.662;2023-03-14T00:24:15;14.70;65.10
11647;DHT22;5880;52.342;9.662;2023-03-14T00:26:41;14.80;65.00
11647;DHT22;5880;52.342;9.662;2023-03-14T00:29:06;14.80;65.00
11647;DHT22;5880;52.342;9.662;2023-03-14T00:31:32;14.80;65.00
11647;DHT22;5880;52.342;9.662;2023-03-14T00:33:57;14.80;64.90
11647;DHT22;5880;52.342;9.662;2023-03-14T00:36:23;14.80;64.80
11647;DHT22;5880;52.342;9.662;2023-03-14T00:38:51;14.80;64.70
11647;DHT22;5880;52.342;9.662;2023-03-14T00:41:23;14.90;64.60
11647;DHT22;5880;52.342;9.662;2023-03-14T00:43:52;14.80;64.50
11647;DHT22;5880;52.342;9.662;2023-03-14T00:46:18;14.80;64.40
11647;DHT22;5880;52.342;9.662;2023-03-14T00:48:47;14.80;64.60
11647;DHT22;5880;52.342;9.662;2023-03-14T00:51:12;14.80;64.40
11647;DHT22;5880;52.342;9.662;2023-03-14T00:53:40;14.70;64.60
11647;DHT22;5880;52.342;9.662;2023-03-14T00:56:09;14.80;64.50
11647;DHT22;5880;52.342;9.662;2023-03-14T00:58:36;14.80;64.50
11647;DHT22;5880;52.342;9.662;2023-03-14T01:01:10;14.70;64.80
11647;DHT22;5880;52.342;9.662;2023-03-14T01:03:39;14.70;64.50
11647;DHT22;5880;52.342;9.662;2023-03-14T01:06:19;14.70;64.90
11647;DHT22;5880;52.342;9.662;2023-03-14T01:08:47;14.70;64.50
11647;DHT22;5880;52.342;9.662;2023-03-14T01:11:19;14.70;64.80
11647;DHT22;5880;52.342;9.662;2023-03-14T01:13:47;14.70;64.70
11647;DHT22;5880;52.342;9.662;2023-03-14T01:16:19;14.70;64.80
11647;DHT22;5880;52.342;9.662;2023-03-14T01:18:46;14.70;64.50
11647;DHT22;5880;52.342;9.662;2023-03-14T01:23:44;14.70;64.70
11647;DHT22;5880;52.342;9.662;2023-03-14T01:26:12;14.70;64.90
11647;DHT22;5880;52.342;9.662;2023-03-14T01:28:40;14.70;64.80
11647;DHT22;5880;52.342;9.662;2023-03-14T01:31:07;14.60;64.90
11647;DHT22;5880;52.342;9.662;2023-03-14T01:33:35;14.70;64.90
11647;DHT22;5880;52.342;9.662;2023-03-14T01:36:02;14.70;64.90
11647;DHT22;5880;52.342;9.662;2023-03-14T01:38:29;14.70;64.90
11647;DHT22;5880;52.342;9.662;2023-03-14T01:40:56;14.70;65.00
11647;DHT22;5880;52.342;9.662;2023-03-14T01:43:22;14.60;64.90
11647;DHT22;5880;52.342;9.662;2023-03-14T01:49:15;14.70;64.20
11647;DHT22;5880;52.342;9.662;2023-03-14T01:52:03;14.70;64.40
11647;DHT22;5880;52.342;9.662;2023-03-14T01:54:49;14.70;64.60
11647;DHT22;5880;52.342;9.662;2023-03-14T01:57:25;14.70;64.20
11647;DHT22;5880;52.342;9.662;2023-03-14T02:00:19;14.70;64.70
11647;DHT22;5880;52.342;9.662;2023-03-14T02:02:49;14.70;64.80
11647;DHT22;5880;52.342;9.662;2023-03-14T02:05:26;14.70;64.90
11647;DHT22;5880;52.342;9.662;2023-03-14T02:07:58;14.70;64.50
11647;DHT22;5880;52.342;9.662;2023-03-14T02:10:34;14.70;65.00
11647;DHT22;5880;52.342;9.662;2023-03-14T02:13:05;14.70;64.60
11647;DHT22;5880;52.342;9.662;2023-03-14T02:15:32;14.80;64.90
11647;DHT22;5880;52.342;9.662;2023-03-14T02:17:59;14.80;64.90
11647;DHT22;5880;52.342;9.662;2023-03-14T02:23:09;14.80;64.30
11647;DHT22;5880;52.342;9.662;2023-03-14T02:25:48;14.90;64.90
11647;DHT22;5880;52.342;9.662;2023-03-14T02:28:22;14.90;64.50
11647;DHT22;5880;52.342;9.662;2023-03-14T02:30:47;14.90;64.80
11647;DHT22;5880;52.342;9.662;2023-03-14T02:33:16;14.90;64.90
11647;DHT22;5880;52.342;9.662;2023-03-14T02:35:47;14.90;64.50
11647;DHT22;5880;52.342;9.662;2023-03-14T02:41:08;14.90;64.10
11647;DHT22;5880;52.342;9.662;2023-03-14T02:43:34;14.90;64.50
11647;DHT22;5880;52.342;9.662;2023-03-14T02:46:01;14.90;64.50
11647;DHT22;5880;52.342;9.662;2023-03-14T02:48:33;14.90;64.40
11647;DHT22;5880;52.342;9.662;2023-03-14T02:51:05;14.90;64.20
11647;DHT22;5880;52.342;9.662;2023-03-14T02:53:36;14.80;64.40
11647;DHT22;5880;52.342;9.662;2023-03-14T02:56:03;14.80;63.80
11647;DHT22;5880;52.342;9.662;2023-03-14T02:58:29;14.80;64.20
11647;DHT22;5880;52.342;9.662;2023-03-14T03:00:56;14.80;64.20
11647;DHT22;5880;52.342;9.662;2023-03-14T03:03:21;14.80;64.30
11647;DHT22;5880;52.342;9.662;2023-03-14T03:05:52;15.00;64.30
11647;DHT22;5880;52.342;9.662;2023-03-14T03:08:20;14.80;64.00
11647;DHT22;5880;52.342;9.662;2023-03-14T03:10:48;14.80;64.20
11647;DHT22;5880;52.342;9.662;2023-03-14T03:13:16;14.70;63.90
11647;DHT22;5880;52.342;9.662;2023-03-14T03:15:42;14.70;64.20
11647;DHT22;5880;52.342;9.662;2023-03-14T03:18:08;14.70;64.10
11647;DHT22;5880;52.342;9.662;2023-03-14T03:20:34;14.60;64.10
11647;DHT22;5880;52.342;9.662;2023-03-14T03:23:00;14.60;64.20
11647;DHT22;5880;52.342;9.662;2023-03-14T03:25:26;14.60;64.20
11647;DHT22;5880;52.342;9.662;2023-03-14T03:27:53;14.60;64.10
11647;DHT22;5880;52.342;9.662;2023-03-14T03:30:19;14.60;64.20
11647;DHT22;5880;52.342;9.662;2023-03-14T03:32:45;14.60;64.20
11647;DHT22;5880;52.342;9.662;2023-03-14T03:35:10;14.60;64.30
11647;DHT22;5880;52.342;9.662;2023-03-14T03:37:37;14.60;64.30
11647;DHT22;5880;52.342;9.662;2023-03-14T03:40:03;14.50;64.30
11647;DHT22;5880;52.342;9.662;2023-03-14T03:42:31;14.60;64.30
11647;DHT22;5880;52.342;9.662;2023-03-14T03:44:59;14.60;64.50
11647;DHT22;5880;52.342;9.662;2023-03-14T03:47:26;14.60;64.60
11647;DHT22;5880;52.342;9.662;2023-03-14T03:49:52;14.50;64.50
11647;DHT22;5880;52.342;9.662;2023-03-14T03:52:18;14.40;64.50
11647;DHT22;5880;52.342;9.662;2023-03-14T03:54:43;14.40;64.50
11647;DHT22;5880;52.342;9.662;2023-03-14T03:57:09;14.30;64.50
11647;DHT22;5880;52.342;9.662;2023-03-14T03:59:35;14.10;65.40
11647;DHT22;5880;52.342;9.662;2023-03-14T04:02:00;14.10;64.70
11647;DHT22;5880;52.342;9.662;2023-03-14T04:04:26;13.90;64.70
11647;DHT22;5880;52.342;9.662;2023-03-14T04:06:52;13.80;64.80
11647;DHT22;5880;52.342;9.662;2023-03-14T04:09:17;13.70;65.00
11647;DHT22;5880;52.342;9.662;2023-03-14T04:11:43;13.60;65.10
11647;DHT22;5880;52.342;9.662;2023-03-14T04:14:09;13.50;65.20
11647;DHT22;5880;52.342;9.662;2023-03-14T04:16:35;13.40;65.30
11647;DHT22;5880;52.342;9.662;2023-03-14T04:19:02;13.30;65.50
11647;DHT22;5880;52.342;9.662;2023-03-14T04:21:28;13.30;65.60
11647;DHT22;5880;52.342;9.662;2023-03-14T04:23:54;13.20;65.60
11647;DHT22;5880;52.342;9.662;2023-03-14T04:26:20;13.20;65.60
11647;DHT22;5880;52.342;9.662;2023-03-14T04:28:45;13.10;65.70
11647;DHT22;5880;52.342;9.662;2023-03-14T04:31:14;13.10;65.80
11647;DHT22;5880;52.342;9.662;2023-03-14T04:33:42;13.10;65.80
11647;DHT22;5880;52.342;9.662;2023-03-14T04:36:08;13.00;66.40
11647;DHT22;5880;52.342;9.662;2023-03-14T04:38:35;13.00;65.80
11647;DHT22;5880;52.342;9.662;2023-03-14T04:41:01;13.00;65.80
11647;DHT22;5880;52.342;9.662;2023-03-14T04:43:27;13.00;65.70
11647;DHT22;5880;52.342;9.662;2023-03-14T04:45:54;12.90;65.70
11647;DHT22;5880;52.342;9.662;2023-03-14T04:48:21;12.90;65.60
11647;DHT22;5880;52.342;9.662;2023-03-14T04:50:47;12.90;65.70
11647;DHT22;5880;52.342;9.662;2023-03-14T04:53:14;12.80;65.60
11647;DHT22;5880;52.342;9.662;2023-03-14T04:55:41;12.80;65.70
11647;DHT22;5880;52.342;9.662;2023-03-14T04:58:06;12.80;65.80
11647;DHT22;5880;52.342;9.662;2023-03-14T05:00:32;12.70;65.90
11647;DHT22;5880;52.342;9.662;2023-03-14T05:02:58;12.70;65.80
11647;DHT22;5880;52.342;9.662;2023-03-14T05:05:24;12.70;65.80
11647;DHT22;5880;52.342;9.662;2023-03-14T05:07:50;12.70;65.90
11647;DHT22;5880;52.342;9.662;2023-03-14T05:10:16;12.70;66.00
11647;DHT22;5880;52.342;9.662;2023-03-14T05:12:42;12.70;66.00
11647;DHT22;5880;52.342;9.662;2023-03-14T05:15:08;12.60;65.90
11647;DHT22;5880;52.342;9.662;2023-03-14T05:17:37;12.70;66.20
11647;DHT22;5880;52.342;9.662;2023-03-14T05:20:03;12.70;66.10
11647;DHT22;5880;52.342;9.662;2023-03-14T05:22:35;12.60;66.00
11647;DHT22;5880;52.342;9.662;2023-03-14T05:25:01;12.60;66.10
11647;DHT22;5880;52.342;9.662;2023-03-14T05:27:26;12.60;66.10
11647;DHT22;5880;52.342;9.662;2023-03-14T05:29:52;12.60;66.20
11647;DHT22;5880;52.342;9.662;2023-03-14T05:32:18;12.50;66.30
11647;DHT22;5880;52.342;9.662;2023-03-14T05:34:43;12.50;66.40
11647;DHT22;5880;52.342;9.662;2023-03-14T05:37:09;12.50;66.50
11647;DHT22;5880;52.342;9.662;2023-03-14T05:39:34;12.50;66.60
11647;DHT22;5880;52.342;9.662;2023-03-14T05:42:00;12.50;66.60
11647;DHT22;5880;52.342;9.662;2023-03-14T05:44:26;12.50;66.70
11647;DHT22;5880;52.342;9.662;2023-03-14T05:46:51;12.50;66.90
11647;DHT22;5880;52.342;9.662;2023-03-14T05:49:17;12.50;66.90
11647;DHT22;5880;52.342;9.662;2023-03-14T05:51:42;12.50;66.90
11647;DHT22;5880;52.342;9.662;2023-03-14T05:54:08;12.50;67.10
11647;DHT22;5880;52.342;9.662;2023-03-14T05:56:34;12.50;67.10
11647;DHT22;5880;52.342;9.662;2023-03-14T05:59:00;12.50;67.30
11647;DHT22;5880;52.342;9.662;2023-03-14T06:01:28;12.50;67.10
11647;DHT22;5880;52.342;9.662;2023-03-14T06:03:54;12.50;67.10
11647;DHT22;5880;52.342;9.662;2023-03-14T06:06:20;12.60;67.20
11647;DHT22;5880;52.342;9.662;2023-03-14T06:08:46;12.60;67.20
11647;DHT22;5880;52.342;9.662;2023-03-14T06:11:12;12.60;67.20
11647;DHT22;5880;52.342;9.662;2023-03-14T06:13:37;12.60;67.30
11647;DHT22;5880;52.342;9.662;2023-03-14T06:16:03;12.60;67.40
11647;DHT22;5880;52.342;9.662;2023-03-14T06:18:29;12.70;67.60
11647;DHT22;5880;52.342;9.662;2023-03-14T06:20:56;12.70;67.70
11647;DHT22;5880;52.342;9.662;2023-03-14T06:23:22;12.70;67.80
11647;DHT22;5880;52.342;9.662;2023-03-14T06:25:48;12.70;67.80
11647;DHT22;5880;52.342;9.662;2023-03-14T06:28:14;12.80;67.80
11647;DHT22;5880;52.342;9.662;2023-03-14T06:30:41;12.90;67.80
11647;DHT22;5880;52.342;9.662;2023-03-14T06:33:06;12.90;67.60
11647;DHT22;5880;52.342;9.662;2023-03-14T06:35:32;13.00;67.50
11647;DHT22;5880;52.342;9.662;2023-03-14T06:37:58;13.00;67.50
11647;DHT22;5880;52.342;9.662;2023-03-14T06:40:24;13.00;67.40
11647;DHT22;5880;52.342;9.662;2023-03-14T06:42:49;13.00;67.30
11647;DHT22;5880;52.342;9.662;2023-03-14T06:45:15;13.10;67.50
11647;DHT22;5880;52.342;9.662;2023-03-14T06:47:41;13.10;67.50
11647;DHT22;5880;52.342;9.662;2023-03-14T06:50:08;13.20;67.40
11647;DHT22;5880;52.342;9.662;2023-03-14T06:52:34;13.20;67.20
11647;DHT22;5880;52.342;9.662;2023-03-14T06:55:01;13.20;67.00
11647;DHT22;5880;52.342;9.662;2023-03-14T06:57:27;13.30;67.00
11647;DHT22;5880;52.342;9.662;2023-03-14T06:59:52;13.30;67.00
11647;DHT22;5880;52.342;9.662;2023-03-14T07:02:18;13.40;67.00
11647;DHT22;5880;52.342;9.662;2023-03-14T07:04:44;13.40;67.00
11647;DHT22;5880;52.342;9.662;2023-03-14T07:07:09;13.50;66.80
11647;DHT22;5880;52.342;9.662;2023-03-14T07:09:35;13.50;66.80
11647;DHT22;5880;52.342;9.662;2023-03-14T07:12:02;13.50;66.50
11647;DHT22;5880;52.342;9.662;2023-03-14T07:14:29;13.50;66.40
11647;DHT22;5880;52.342;9.662;2023-03-14T07:16:55;13.50;66.30
11647;DHT22;5880;52.342;9.662;2023-03-14T07:19:21;13.60;66.50
11647;DHT22;5880;52.342;9.662;2023-03-14T07:21:47;13.50;66.40
11647;DHT22;5880;52.342;9.662;2023-03-14T07:24:12;13.50;66.50
11647;DHT22;5880;52.342;9.662;2023-03-14T07:26:38;13.60;66.60
11647;DHT22;5880;52.342;9.662;2023-03-14T07:29:04;13.60;66.60
11647;DHT22;5880;52.342;9.662;2023-03-14T07:31:30;13.60;66.70
11647;DHT22;5880;52.342;9.662;2023-03-14T07:33:55;13.60;66.60
11647;DHT22;5880;52.342;9.662;2023-03-14T07:36:21;13.60;66.40
11647;DHT22;5880;52.342;9.662;2023-03-14T07:38:47;13.70;66.50
11647;DHT22;5880;52.342;9.662;2023-03-14T07:41:13;13.70;66.30
11647;DHT22;5880;52.342;9.662;2023-03-14T07:43:39;13.70;66.20
11647;DHT22;5880;52.342;9.662;2023-03-14T07:46:04;13.70;66.30
11647;DHT22;5880;52.342;9.662;2023-03-14T07:48:30;13.70;66.20
11647;DHT22;5880;52.342;9.662;2023-03-14T07:50:56;13.70;66.00
11647;DHT22;5880;52.342;9.662;2023-03-14T07:53:23;13.70;65.90
11647;DHT22;5880;52.342;9.662;2023-03-14T07:55:53;13.60;66.20
11647;DHT22;5880;52.342;9.662;2023-03-14T07:58:20;13.50;66.30
11647;DHT22;5880;52.342;9.662;2023-03-14T08:00:47;13.60;66.70
11647;DHT22;5880;52.342;9.662;2023-03-14T08:03:13;13.50;66.80
11647;DHT22;5880;52.342;9.662;2023-03-14T08:05:39;13.50;66.90
11647;DHT22;5880;52.342;9.662;2023-03-14T08:08:06;13.50;66.90
11647;DHT22;5880;52.342;9.662;2023-03-14T08:10:32;13.50;67.00
11647;DHT22;5880;52.342;9.662;2023-03-14T08:12:59;13.50;67.20
11647;DHT22;5880;52.342;9.662;2023-03-14T08:15:27;13.50;67.60
11647;DHT22;5880;52.342;9.662;2023-03-14T08:17:55;13.50;67.70
11647;DHT22;5880;52.342;9.662;2023-03-14T08:20:22;13.50;67.80
11647;DHT22;5880;52.342;9.662;2023-03-14T08:22:50;13.50;67.70
11647;DHT22;5880;52.342;9.662;2023-03-14T08:25:16;13.60;67.60
11647;DHT22;5880;52.342;9.662;2023-03-14T08:27:43;13.60;67.40
11647;DHT22;5880;52.342;9.662;2023-03-14T08:30:17;13.60;67.40
11647;DHT22;5880;52.342;9.662;2023-03-14T08:32:44;13.60;67.50
11647;DHT22;5880;52.342;9.662;2023-03-14T08:35:10;13.60;67.80
11647;DHT22;5880;52.342;9.662;2023-03-14T08:37:37;13.70;67.90
11647;DHT22;5880;52.342;9.662;2023-03-14T08:40:04;13.70;67.90
11647;DHT22;5880;52.342;9.662;2023-03-14T08:42:36;13.70;67.80
11647;DHT22;5880;52.342;9.662;2023-03-14T08:45:03;13.80;67.70
11647;DHT22;5880;52.342;9.662;2023-03-14T08:47:30;13.90;67.70
11647;DHT22;5880;52.342;9.662;2023-03-14T08:49:55;13.80;68.20
11647;DHT22;5880;52.342;9.662;2023-03-14T08:52:21;13.80;67.60
11647;DHT22;5880;52.342;9.662;2023-03-14T08:54:47;13.80;67.60
11647;DHT22;5880;52.342;9.662;2023-03-14T08:57:13;13.90;67.90
11647;DHT22;5880;52.342;9.662;2023-03-14T08:59:39;13.90;67.80
11647;DHT22;5880;52.342;9.662;2023-03-14T09:02:05;13.90;67.80
11647;DHT22;5880;52.342;9.662;2023-03-14T09:04:31;13.90;67.60
11647;DHT22;5880;52.342;9.662;2023-03-14T09:06:59;13.90;67.70
11647;DHT22;5880;52.342;9.662;2023-03-14T09:09:25;13.90;67.90
11647;DHT22;5880;52.342;9.662;2023-03-14T09:11:55;13.90;68.20
11647;DHT22;5880;52.342;9.662;2023-03-14T09:14:22;13.90;68.40
11647;DHT22;5880;52.342;9.662;2023-03-14T09:16:48;13.90;68.40
11647;DHT22;5880;52.342;9.662;2023-03-14T09:19:14;13.90;68.30
11647;DHT22;5880;52.342;9.662;2023-03-14T09:21:40;14.00;68.20
11647;DHT22;5880;52.342;9.662;2023-03-14T09:24:06;14.00;68.10
11647;DHT22;5880;52.342;9.662;2023-03-14T09:26:31;14.00;68.10
11647;DHT22;5880;52.342;9.662;2023-03-14T09:28:57;13.90;68.30
11647;DHT22;5880;52.342;9.662;2023-03-14T09:31:23;14.00;68.70
11647;DHT22;5880;52.342;9.662;2023-03-14T09:33:48;14.00;68.90
11647;DHT22;5880;52.342;9.662;2023-03-14T09:36:14;14.10;69.10
11647;DHT22;5880;52.342;9.662;2023-03-14T09:38:40;14.10;69.00
11647;DHT22;5880;52.342;9.662;2023-03-14T09:41:16;14.20;69.30
11647;DHT22;5880;52.342;9.662;2023-03-14T09:43:47;14.20;69.50
11647;DHT22;5880;52.342;9.662;2023-03-14T09:46:16;14.40;70.50
11647;DHT22;5880;52.342;9.662;2023-03-14T09:48:43;14.50;71.50
11647;DHT22;5880;52.342;9.662;2023-03-14T09:51:16;14.70;72.40
11647;DHT22;5880;52.342;9.662;2023-03-14T09:53:49;15.00;71.90
11647;DHT22;5880;52.342;9.662;2023-03-14T09:56:30;15.20;71.20
11647;DHT22;5880;52.342;9.662;2023-03-14T09:59:03;15.40;67.50
11647;DHT22;5880;52.342;9.662;2023-03-14T10:01:32;15.50;68.40
11647;DHT22;5880;52.342;9.662;2023-03-14T10:04:07;15.60;68.40
11647;DHT22;5880;52.342;9.662;2023-03-14T10:06:38;15.70;68.70
11647;DHT22;5880;52.342;9.662;2023-03-14T10:09:04;15.80;69.20
11647;DHT22;5880;52.342;9.662;2023-03-14T10:11:31;15.80;69.70
11647;DHT22;5880;52.342;9.662;2023-03-14T10:14:06;16.00;70.50
11647;DHT22;5880;52.342;9.662;2023-03-14T10:16:45;16.10;69.10
11647;DHT22;5880;52.342;9.662;2023-03-14T10:19:14;16.30;68.10
11647;DHT22;5880;52.342;9.662;2023-03-14T10:21:43;16.40;68.40
11647;DHT22;5880;52.342;9.662;2023-03-14T10:24:27;16.50;67.90
11647;DHT22;5880;52.342;9.662;2023-03-14T10:26:58;16.50;66.60
11647;DHT22;5880;52.342;9.662;2023-03-14T10:29:27;16.50;66.10
11647;DHT22;5880;52.342;9.662;2023-03-14T10:34:32;16.50;65.40
11647;DHT22;5880;52.342;9.662;2023-03-14T10:37:23;16.40;64.40
11647;DHT22;5880;52.342;9.662;2023-03-14T10:40:13;16.30;64.00
11647;DHT22;5880;52.342;9.662;2023-03-14T10:42:41;16.10;64.10
11647;DHT22;5880;52.342;9.662;2023-03-14T10:48:23;15.90;64.40
11647;DHT22;5880;52.342;9.662;2023-03-14T10:51:09;15.70;64.50
11647;DHT22;5880;52.342;9.662;2023-03-14T10:56:24;15.50;65.10
11647;DHT22;5880;52.342;9.662;2023-03-14T10:58:53;15.40;65.40
11647;DHT22;5880;52.342;9.662;2023-03-14T11:01:27;15.30;65.40
11647;DHT22;5880;52.342;9.662;2023-03-14T11:04:35;15.30;65.50
11647;DHT22;5880;52.342;9.662;2023-03-14T11:07:24;15.30;65.50
11647;DHT22;5880;52.342;9.662;2023-03-14T11:16:19;15.10;65.90
11647;DHT22;5880;52.342;9.662;2023-03-14T11:25:13;14.80;63.80
11647;DHT22;5880;52.342;9.662;2023-03-14T11:31:00;14.20;61.60
11647;DHT22;5880;52.342;9.662;2023-03-14T11:34:12;13.80;61.60
11647;DHT22;5880;52.342;9.662;2023-03-14T11:37:07;13.40;61.80
11647;DHT22;5880;52.342;9.662;2023-03-14T11:39:41;13.00;62.20
11647;DHT22;5880;52.342;9.662;2023-03-14T11:42:15;12.70;63.30
11647;DHT22;5880;52.342;9.662;2023-03-14T11:44:45;12.40;63.90
11647;DHT22;5880;52.342;9.662;2023-03-14T11:47:24;12.20;64.40
11647;DHT22;5880;52.342;9.662;2023-03-14T11:55:51;11.70;65.00
11647;DHT22;5880;52.342;9.662;2023-03-14T11:58:35;11.50;65.10
11647;DHT22;5880;52.342;9.662;2023-03-14T12:01:10;11.40;65.10
11647;DHT22;5880;52.342;9.662;2023-03-14T12:09:20;10.90;64.20
11647;DHT22;5880;52.342;9.662;2023-03-14T12:11:58;10.70;64.10
11647;DHT22;5880;52.342;9.662;2023-03-14T12:14:27;10.60;64.00
11647;DHT22;5880;52.342;9.662;2023-03-14T12:16:58;10.40;64.00
11647;DHT22;5880;52.342;9.662;2023-03-14T12:19:33;10.30;64.40
11647;DHT22;5880;52.342;9.662;2023-03-14T12:24:45;10.00;65.10
11647;DHT22;5880;52.342;9.662;2023-03-14T12:27:43;9.90;65.20
11647;DHT22;5880;52.342;9.662;2023-03-14T12:30:34;9.70;65.30
11647;DHT22;5880;52.342;9.662;2023-03-14T12:35:35;9.60;65.30
11647;DHT22;5880;52.342;9.662;2023-03-14T12:38:43;9.50;65.20
11647;DHT22;5880;52.342;9.662;2023-03-14T12:41:23;9.40;65.10
11647;DHT22;5880;52.342;9.662;2023-03-14T12:43:54;9.20;65.20
11647;DHT22;5880;52.342;9.662;2023-03-14T12:46:27;9.10;65.50
11647;DHT22;5880;52.342;9.662;2023-03-14T12:49:04;9.00;65.70
11647;DHT22;5880;52.342;9.662;2023-03-14T12:51:38;9.00;66.10
11647;DHT22;5880;52.342;9.662;2023-03-14T12:54:25;9.00;66.10
11647;DHT22;5880;52.342;9.662;2023-03-14T12:57:24;8.90;66.00
11647;DHT22;5880;52.342;9.662;2023-03-14T13:00:21;8.90;66.30
11647;DHT22;5880;52.342;9.662;2023-03-14T13:02:49;8.80;66.40
11647;DHT22;5880;52.342;9.662;2023-03-14T13:05:23;8.80;66.50
11647;DHT22;5880;52.342;9.662;2023-03-14T13:10:23;8.80;67.40
11647;DHT22;5880;52.342;9.662;2023-03-14T13:13:10;8.90;67.90
11647;DHT22;5880;52.342;9.662;2023-03-14T13:15:44;8.90;68.00
11647;DHT22;5880;52.342;9.662;2023-03-14T13:18:18;9.00;68.00
11647;DHT22;5880;52.342;9.662;2023-03-14T13:20:59;9.00;67.90
11647;DHT22;5880;52.342;9.662;2023-03-14T13:23:32;9.10;68.10
11647;DHT22;5880;52.342;9.662;2023-03-14T13:26:00;9.20;68.30
11647;DHT22;5880;52.342;9.662;2023-03-14T13:28:27;9.30;68.30
11647;DHT22;5880;52.342;9.662;2023-03-14T13:30:58;9.40;68.30
11647;DHT22;5880;52.342;9.662;2023-03-14T13:33:26;9.50;68.40
11647;DHT22;5880;52.342;9.662;2023-03-14T13:38:29;9.60;67.90
11647;DHT22;5880;52.342;9.662;2023-03-14T13:40:59;9.60;67.50
11647;DHT22;5880;52.342;9.662;2023-03-14T13:43:36;9.70;67.20
11647;DHT22;5880;52.342;9.662;2023-03-14T13:46:19;9.70;67.00
11647;DHT22;5880;52.342;9.662;2023-03-14T13:48:49;9.70;67.00
11647;DHT22;5880;52.342;9.662;2023-03-14T13:51:19;9.70;67.30
11647;DHT22;5880;52.342;9.662;2023-03-14T13:53:49;9.70;67.50
11647;DHT22;5880;52.342;9.662;2023-03-14T13:56:19;9.70;67.70
11647;DHT22;5880;52.342;9.662;2023-03-14T13:58:46;9.80;67.60
11647;DHT22;5880;52.342;9.662;2023-03-14T14:01:30;9.70;67.70
11647;DHT22;5880;52.342;9.662;2023-03-14T14:04:05;9.80;67.90
11647;DHT22;5880;52.342;9.662;2023-03-14T14:06:45;9.80;67.70
11647;DHT22;5880;52.342;9.662;2023-03-14T14:12:34;9.90;66.80
11647;DHT22;5880;52.342;9.662;2023-03-14T14:15:11;9.80;66.20
11647;DHT22;5880;52.342;9.662;2023-03-14T14:17:52;9.80;65.70
11647;DHT22;5880;52.342;9.662;2023-03-14T14:20:28;9.60;65.40
11647;DHT22;5880;52.342;9.662;2023-03-14T14:23:01;9.70;65.60
11647;DHT22;5880;52.342;9.662;2023-03-14T14:25:29;9.60;65.40
11647;DHT22;5880;52.342;9.662;2023-03-14T14:27:56;9.40;65.50
11647;DHT22;5880;52.342;9.662;2023-03-14T14:30:32;9.40;65.70
11647;DHT22;5880;52.342;9.662;2023-03-14T14:33:20;10.00;66.40
11647;DHT22;5880;52.342;9.662;2023-03-14T14:35:58;9.30;65.80
11647;DHT22;5880;52.342;9.662;2023-03-14T14:38:26;9.20;66.20
11647;DHT22;5880;52.342;9.662;2023-03-14T14:40:59;9.20;66.30
11647;DHT22;5880;52.342;9.662;2023-03-14T14:43:28;9.20;65.90
11647;DHT22;5880;52.342;9.662;2023-03-14T14:46:00;9.20;65.90
11647;DHT22;5880;52.342;9.662;2023-03-14T14:48:27;9.20;66.10
11647;DHT22;5880;52.342;9.662;2023-03-14T14:51:00;9.20;65.90
11647;DHT22;5880;52.342;9.662;2023-03-14T14:53:39;9.20;65.70
11647;DHT22;5880;52.342;9.662;2023-03-14T14:56:18;9.20;65.70
11647;DHT22;5880;52.342;9.662;2023-03-14T14:58:48;9.20;65.70
11647;DHT22;5880;52.342;9.662;2023-03-14T15:01:22;9.30;65.90
11647;DHT22;5880;52.342;9.662;2023-03-14T15:03:51;9.30;65.40
11647;DHT22;5880;52.342;9.662;2023-03-14T15:06:18;9.30;65.10
11647;DHT22;5880;52.342;9.662;2023-03-14T15:08:47;9.30;65.00
11647;DHT22;5880;52.342;9.662;2023-03-14T15:11:19;9.30;64.90
11647;DHT22;5880;52.342;9.662;2023-03-14T15:13:48;9.30;63.90
11647;DHT22;5880;52.342;9.662;2023-03-14T15:16:28;9.30;64.40
11647;DHT22;5880;52.342;9.662;2023-03-14T15:19:00;9.30;63.30
11647;DHT22;5880;52.342;9.662;2023-03-14T15:21:30;9.30;63.90
11647;DHT22;5880;52.342;9.662;2023-03-14T15:23:56;9.30;64.30
11647;DHT22;5880;52.342;9.662;2023-03-14T15:26:25;9.30;63.30
11647;DHT22;5880;52.342;9.662;2023-03-14T15:28:52;9.30;62.80
11647;DHT22;5880;52.342;9.662;2023-03-14T15:31:20;9.40;63.40
11647;DHT22;5880;52.342;9.662;2023-03-14T15:33:48;9.30;63.60
11647;DHT22;5880;52.342;9.662;2023-03-14T15:36:26;9.40;64.00
11647;DHT22;5880;52.342;9.662;2023-03-14T15:38:54;9.40;62.80
11647;DHT22;5880;52.342;9.662;2023-03-14T15:41:21;9.50;64.00
11647;DHT22;5880;52.342;9.662;2023-03-14T15:43:48;9.50;63.00
11647;DHT22;5880;52.342;9.662;2023-03-14T15:46:15;9.60;63.10
11647;DHT22;5880;52.342;9.662;2023-03-14T15:48:42;9.70;63.00
11647;DHT22;5880;52.342;9.662;2023-03-14T15:51:09;9.70;62.30
11647;DHT22;5880;52.342;9.662;2023-03-14T15:53:35;9.70;62.50
11647;DHT22;5880;52.342;9.662;2023-03-14T15:56:05;9.70;62.40
11647;DHT22;5880;52.342;9.662;2023-03-14T15:58:31;9.70;61.00
11647;DHT22;5880;52.342;9.662;2023-03-14T16:00:59;9.70;61.80
11647;DHT22;5880;52.342;9.662;2023-03-14T16:03:27;9.60;61.80
11647;DHT22;5880;52.342;9.662;2023-03-14T16:05:54;9.60;61.30
11647;DHT22;5880;52.342;9.662;2023-03-14T16:08:21;9.60;61.20
11647;DHT22;5880;52.342;9.662;2023-03-14T16:10:48;9.60;61.40
11647;DHT22;5880;52.342;9.662;2023-03-14T16:13:14;9.50;60.80
11647;DHT22;5880;52.342;9.662;2023-03-14T16:15:40;9.50;61.00
11647;DHT22;5880;52.342;9.662;2023-03-14T16:18:06;9.50;60.40
11647;DHT22;5880;52.342;9.662;2023-03-14T16:20:31;9.40;60.20
11647;DHT22;5880;52.342;9.662;2023-03-14T16:22:57;9.40;59.80
11647;DHT22;5880;52.342;9.662;2023-03-14T16:25:23;9.70;60.30
11647;DHT22;5880;52.342;9.662;2023-03-14T16:27:48;9.40;60.10
11647;DHT22;5880;52.342;9.662;2023-03-14T16:30:14;9.40;60.20
11647;DHT22;5880;52.342;9.662;2023-03-14T16:32:40;9.40;60.30
11647;DHT22;5880;52.342;9.662;2023-03-14T16:35:06;9.40;59.50
11647;DHT22;5880;52.342;9.662;2023-03-14T16:37:32;9.30;59.90
11647;DHT22;5880;52.342;9.662;2023-03-14T16:39:58;9.40;59.60
11647;DHT22;5880;52.342;9.662;2023-03-14T16:42:23;9.40;60.00
11647;DHT22;5880;52.342;9.662;2023-03-14T16:44:49;9.30;60.10
11647;DHT22;5880;52.342;9.662;2023-03-14T16:47:15;9.40;60.20
11647;DHT22;5880;52.342;9.662;2023-03-14T16:49:40;9.40;59.70
11647;DHT22;5880;52.342;9.662;2023-03-14T16:52:06;9.40;59.70
11647;DHT22;5880;52.342;9.662;2023-03-14T16:54:33;9.40;58.80
11647;DHT22;5880;52.342;9.662;2023-03-14T16:56:59;9.30;59.20
11647;DHT22;5880;52.342;9.662;2023-03-14T16:59:25;9.30;59.40
11647;DHT22;5880;52.342;9.662;2023-03-14T17:01:53;9.30;60.10
11647;DHT22;5880;52.342;9.662;2023-03-14T17:04:20;9.30;59.00
11647;DHT22;5880;52.342;9.662;2023-03-14T17:06:46;9.20;58.90